Dati Storici

Data ora Umidita' aria (%) Temperatura aria (°C) Rad globale (W/m²) Gonioanemometro (°) Tacoanemometro (m/s) Pioggia (mm)
27-10-2012 15:30 93.7 % 15.107 110.855 358.217 0.277 0
27-10-2012 15:20 93.3 % 15.024 107.653 68.741 0.72 0
27-10-2012 15:10 92.6 % 14.94 88.596 44.802 0.534 0
27-10-2012 15:00 92.4 % 14.981 43.204 43.015 0.395 0
27-10-2012 14:50 92.2 % 15.073 21.432 16.599 0.378 0
27-10-2012 14:40 92.3 % 15.16 36.615 40.914 0.491 0
27-10-2012 14:30 92.1 % 15.14 60.374 77.156 0.385 0
27-10-2012 14:20 92.4 % 15.15 99.374 20.678 0.633 0
27-10-2012 14:10 92.5 % 15.125 104.018 77.162 0.722 0
27-10-2012 14:00 91.9 % 15.017 98.934 91.379 0.693 0
27-10-2012 13:50 92.1 % 15.138 92.278 81.184 0.657 0
27-10-2012 13:40 92 % 15.199 128.469 103.903 1.046 0
27-10-2012 13:30 92.4 % 15.35 115.023 48.079 0.863 0
27-10-2012 13:20 92.7 % 15.383 186.713 128.1 0.305 0
27-10-2012 13:10 92.5 % 15.232 127.096 155.558 0.311 0
27-10-2012 13:00 92.4 % 15.286 131.589 61.236 0.443 0
27-10-2012 12:50 91.9 % 15.245 166.164 59.386 1.089 0
27-10-2012 12:40 92.4 % 15.336 205.912 66.007 0.383 0
27-10-2012 12:30 92.6 % 15.331 177.394 80.476 0.31 0
27-10-2012 12:20 92.1 % 14.967 152.974 215.851 0.462 0

I dati sono presentati in modo automatico a scopo informativo. In seguito a verifica i dati possono subire modifiche o essere invalidati e non riportati negli archivi definitivi.